sensor_id;sensor_type;location;lat;lon;timestamp;P1;durP1;ratioP1;P2;durP2;ratioP2
23346;SDS011;36852;45.466;11.066;2023-03-04T00:01:11;13.68;;;6.85;;
23346;SDS011;36852;45.466;11.066;2023-03-04T00:03:39;11.25;;;7.08;;
23346;SDS011;36852;45.466;11.066;2023-03-04T00:06:07;10.93;;;7.53;;
23346;SDS011;36852;45.466;11.066;2023-03-04T00:08:35;13.72;;;7.22;;
23346;SDS011;36852;45.466;11.066;2023-03-04T00:11:03;12.23;;;6.95;;
23346;SDS011;36852;45.466;11.066;2023-03-04T00:13:31;10.90;;;6.87;;
23346;SDS011;36852;45.466;11.066;2023-03-04T00:15:58;14.23;;;7.45;;
23346;SDS011;36852;45.466;11.066;2023-03-04T00:18:26;15.40;;;7.55;;
23346;SDS011;36852;45.466;11.066;2023-03-04T00:20:58;11.35;;;7.47;;
23346;SDS011;36852;45.466;11.066;2023-03-04T00:23:26;13.62;;;7.28;;
23346;SDS011;36852;45.466;11.066;2023-03-04T00:25:55;11.35;;;6.72;;
23346;SDS011;36852;45.466;11.066;2023-03-04T00:28:23;10.90;;;7.08;;
23346;SDS011;36852;45.466;11.066;2023-03-04T00:30:51;17.57;;;7.17;;
23346;SDS011;36852;45.466;11.066;2023-03-04T00:33:19;11.83;;;7.33;;
23346;SDS011;36852;45.466;11.066;2023-03-04T00:35:47;14.30;;;7.08;;
23346;SDS011;36852;45.466;11.066;2023-03-04T00:38:18;11.90;;;7.15;;
23346;SDS011;36852;45.466;11.066;2023-03-04T00:40:47;11.93;;;6.65;;
23346;SDS011;36852;45.466;11.066;2023-03-04T00:43:15;10.65;;;6.62;;
23346;SDS011;36852;45.466;11.066;2023-03-04T00:45:42;11.38;;;6.25;;
23346;SDS011;36852;45.466;11.066;2023-03-04T00:48:10;13.03;;;7.40;;
23346;SDS011;36852;45.466;11.066;2023-03-04T00:50:38;10.43;;;6.58;;
23346;SDS011;36852;45.466;11.066;2023-03-04T00:53:07;10.20;;;6.53;;
23346;SDS011;36852;45.466;11.066;2023-03-04T00:55:36;9.58;;;6.72;;
23346;SDS011;36852;45.466;11.066;2023-03-04T00:58:04;10.98;;;6.90;;
23346;SDS011;36852;45.466;11.066;2023-03-04T01:00:32;9.83;;;6.70;;
23346;SDS011;36852;45.466;11.066;2023-03-04T01:03:00;12.53;;;7.28;;
23346;SDS011;36852;45.466;11.066;2023-03-04T01:05:31;11.33;;;5.78;;
23346;SDS011;36852;45.466;11.066;2023-03-04T01:08:00;13.05;;;7.20;;
23346;SDS011;36852;45.466;11.066;2023-03-04T01:10:28;9.85;;;5.65;;
23346;SDS011;36852;45.466;11.066;2023-03-04T01:12:57;10.43;;;5.53;;
23346;SDS011;36852;45.466;11.066;2023-03-04T01:15:25;11.48;;;6.50;;
23346;SDS011;36852;45.466;11.066;2023-03-04T01:17:53;12.05;;;5.80;;
23346;SDS011;36852;45.466;11.066;2023-03-04T01:20:22;9.13;;;5.97;;
23346;SDS011;36852;45.466;11.066;2023-03-04T01:22:50;10.88;;;6.17;;
23346;SDS011;36852;45.466;11.066;2023-03-04T01:25:17;8.65;;;5.65;;
23346;SDS011;36852;45.466;11.066;2023-03-04T01:27:46;10.32;;;6.10;;
23346;SDS011;36852;45.466;11.066;2023-03-04T01:30:13;10.72;;;6.35;;
23346;SDS011;36852;45.466;11.066;2023-03-04T01:32:42;9.18;;;6.20;;
23346;SDS011;36852;45.466;11.066;2023-03-04T01:35:10;8.83;;;5.80;;
23346;SDS011;36852;45.466;11.066;2023-03-04T01:37:41;11.45;;;6.83;;
23346;SDS011;36852;45.466;11.066;2023-03-04T01:40:09;11.43;;;5.83;;
23346;SDS011;36852;45.466;11.066;2023-03-04T01:42:38;16.12;;;6.05;;
23346;SDS011;36852;45.466;11.066;2023-03-04T01:45:09;9.90;;;6.20;;
23346;SDS011;36852;45.466;11.066;2023-03-04T01:47:38;9.03;;;5.95;;
23346;SDS011;36852;45.466;11.066;2023-03-04T01:50:10;11.55;;;6.40;;
23346;SDS011;36852;45.466;11.066;2023-03-04T01:52:41;11.78;;;6.58;;
23346;SDS011;36852;45.466;11.066;2023-03-04T01:55:19;10.95;;;6.03;;
23346;SDS011;36852;45.466;11.066;2023-03-04T01:57:48;12.47;;;6.03;;
23346;SDS011;36852;45.466;11.066;2023-03-04T02:02:56;8.88;;;5.83;;
23346;SDS011;36852;45.466;11.066;2023-03-04T02:05:23;12.55;;;6.30;;
23346;SDS011;36852;45.466;11.066;2023-03-04T02:07:52;12.95;;;7.17;;
23346;SDS011;36852;45.466;11.066;2023-03-04T02:10:22;12.33;;;6.65;;
23346;SDS011;36852;45.466;11.066;2023-03-04T02:12:52;14.13;;;6.37;;
23346;SDS011;36852;45.466;11.066;2023-03-04T02:15:21;17.25;;;6.85;;
23346;SDS011;36852;45.466;11.066;2023-03-04T02:17:51;12.00;;;6.62;;
23346;SDS011;36852;45.466;11.066;2023-03-04T02:20:39;11.38;;;6.30;;
23346;SDS011;36852;45.466;11.066;2023-03-04T02:26:12;11.25;;;6.08;;
23346;SDS011;36852;45.466;11.066;2023-03-04T02:28:42;9.85;;;6.40;;
23346;SDS011;36852;45.466;11.066;2023-03-04T02:34:15;14.73;;;7.55;;
23346;SDS011;36852;45.466;11.066;2023-03-04T02:36:48;10.63;;;6.40;;
23346;SDS011;36852;45.466;11.066;2023-03-04T02:41:51;13.70;;;7.87;;
23346;SDS011;36852;45.466;11.066;2023-03-04T02:46:56;14.13;;;7.25;;
23346;SDS011;36852;45.466;11.066;2023-03-04T02:49:26;14.05;;;7.15;;
23346;SDS011;36852;45.466;11.066;2023-03-04T02:51:58;12.00;;;6.55;;
23346;SDS011;36852;45.466;11.066;2023-03-04T02:54:36;15.65;;;6.80;;
23346;SDS011;36852;45.466;11.066;2023-03-04T02:57:10;16.10;;;7.13;;
23346;SDS011;36852;45.466;11.066;2023-03-04T02:59:55;13.62;;;7.28;;
23346;SDS011;36852;45.466;11.066;2023-03-04T03:02:23;11.35;;;7.33;;
23346;SDS011;36852;45.466;11.066;2023-03-04T03:04:52;9.88;;;6.47;;
23346;SDS011;36852;45.466;11.066;2023-03-04T03:07:20;13.98;;;7.83;;
23346;SDS011;36852;45.466;11.066;2023-03-04T03:09:49;11.95;;;6.60;;
23346;SDS011;36852;45.466;11.066;2023-03-04T03:12:17;13.10;;;7.22;;
23346;SDS011;36852;45.466;11.066;2023-03-04T03:14:48;10.63;;;6.78;;
23346;SDS011;36852;45.466;11.066;2023-03-04T03:17:17;17.70;;;7.62;;
23346;SDS011;36852;45.466;11.066;2023-03-04T03:19:46;16.85;;;8.40;;
23346;SDS011;36852;45.466;11.066;2023-03-04T03:22:14;11.88;;;7.83;;
23346;SDS011;36852;45.466;11.066;2023-03-04T03:24:42;11.85;;;7.92;;
23346;SDS011;36852;45.466;11.066;2023-03-04T03:27:10;16.77;;;7.40;;
23346;SDS011;36852;45.466;11.066;2023-03-04T03:29:38;12.47;;;8.13;;
23346;SDS011;36852;45.466;11.066;2023-03-04T03:32:09;16.37;;;8.03;;
23346;SDS011;36852;45.466;11.066;2023-03-04T03:34:36;13.62;;;7.72;;
23346;SDS011;36852;45.466;11.066;2023-03-04T03:37:04;13.28;;;8.05;;
23346;SDS011;36852;45.466;11.066;2023-03-04T03:39:32;20.80;;;8.20;;
23346;SDS011;36852;45.466;11.066;2023-03-04T03:42:00;16.75;;;8.88;;
23346;SDS011;36852;45.466;11.066;2023-03-04T03:44:28;16.05;;;8.48;;
23346;SDS011;36852;45.466;11.066;2023-03-04T03:46:56;15.08;;;8.30;;
23346;SDS011;36852;45.466;11.066;2023-03-04T03:49:24;13.48;;;7.85;;
23346;SDS011;36852;45.466;11.066;2023-03-04T03:51:52;13.90;;;8.10;;
23346;SDS011;36852;45.466;11.066;2023-03-04T03:54:21;18.45;;;8.20;;
23346;SDS011;36852;45.466;11.066;2023-03-04T03:56:49;13.98;;;8.50;;
23346;SDS011;36852;45.466;11.066;2023-03-04T03:59:16;17.27;;;9.25;;
23346;SDS011;36852;45.466;11.066;2023-03-04T04:01:46;16.55;;;8.38;;
23346;SDS011;36852;45.466;11.066;2023-03-04T04:04:14;15.08;;;8.20;;
23346;SDS011;36852;45.466;11.066;2023-03-04T04:06:43;17.55;;;9.38;;
23346;SDS011;36852;45.466;11.066;2023-03-04T04:09:14;15.18;;;9.00;;
23346;SDS011;36852;45.466;11.066;2023-03-04T04:11:42;16.00;;;9.50;;
23346;SDS011;36852;45.466;11.066;2023-03-04T04:14:10;19.32;;;9.80;;
23346;SDS011;36852;45.466;11.066;2023-03-04T04:16:40;18.55;;;9.18;;
23346;SDS011;36852;45.466;11.066;2023-03-04T04:19:09;19.02;;;9.48;;
23346;SDS011;36852;45.466;11.066;2023-03-04T04:21:46;18.27;;;10.23;;
23346;SDS011;36852;45.466;11.066;2023-03-04T04:24:14;15.53;;;9.00;;
23346;SDS011;36852;45.466;11.066;2023-03-04T04:26:42;18.05;;;9.80;;
23346;SDS011;36852;45.466;11.066;2023-03-04T04:29:12;21.52;;;9.80;;
23346;SDS011;36852;45.466;11.066;2023-03-04T04:31:40;17.27;;;10.78;;
23346;SDS011;36852;45.466;11.066;2023-03-04T04:34:08;19.12;;;10.43;;
23346;SDS011;36852;45.466;11.066;2023-03-04T04:36:39;19.00;;;11.05;;
23346;SDS011;36852;45.466;11.066;2023-03-04T04:39:09;17.80;;;11.00;;
23346;SDS011;36852;45.466;11.066;2023-03-04T04:41:38;19.17;;;10.98;;
23346;SDS011;36852;45.466;11.066;2023-03-04T04:44:08;21.10;;;10.80;;
23346;SDS011;36852;45.466;11.066;2023-03-04T04:46:40;20.30;;;11.38;;
23346;SDS011;36852;45.466;11.066;2023-03-04T04:49:08;24.23;;;12.18;;
23346;SDS011;36852;45.466;11.066;2023-03-04T04:51:37;20.25;;;10.68;;
23346;SDS011;36852;45.466;11.066;2023-03-04T04:54:06;22.50;;;11.73;;
23346;SDS011;36852;45.466;11.066;2023-03-04T04:56:36;21.77;;;11.93;;
23346;SDS011;36852;45.466;11.066;2023-03-04T04:59:05;21.05;;;11.38;;
23346;SDS011;36852;45.466;11.066;2023-03-04T05:01:34;20.20;;;11.63;;
23346;SDS011;36852;45.466;11.066;2023-03-04T05:04:02;19.48;;;11.48;;
23346;SDS011;36852;45.466;11.066;2023-03-04T05:06:31;21.60;;;13.45;;
23346;SDS011;36852;45.466;11.066;2023-03-04T05:09:01;23.85;;;13.93;;
23346;SDS011;36852;45.466;11.066;2023-03-04T05:11:31;23.05;;;13.10;;
23346;SDS011;36852;45.466;11.066;2023-03-04T05:13:59;26.95;;;14.18;;
23346;SDS011;36852;45.466;11.066;2023-03-04T05:16:47;21.90;;;12.73;;
23346;SDS011;36852;45.466;11.066;2023-03-04T05:19:15;22.37;;;13.28;;
23346;SDS011;36852;45.466;11.066;2023-03-04T05:21:44;24.65;;;12.80;;
23346;SDS011;36852;45.466;11.066;2023-03-04T05:24:16;23.83;;;13.75;;
23346;SDS011;36852;45.466;11.066;2023-03-04T05:26:45;21.23;;;13.78;;
23346;SDS011;36852;45.466;11.066;2023-03-04T05:29:13;25.55;;;13.00;;
23346;SDS011;36852;45.466;11.066;2023-03-04T05:31:45;22.55;;;14.23;;
23346;SDS011;36852;45.466;11.066;2023-03-04T05:34:13;22.62;;;14.50;;
23346;SDS011;36852;45.466;11.066;2023-03-04T05:36:41;29.23;;;15.10;;
23346;SDS011;36852;45.466;11.066;2023-03-04T05:39:10;24.85;;;15.28;;
23346;SDS011;36852;45.466;11.066;2023-03-04T05:41:38;22.93;;;14.10;;
23346;SDS011;36852;45.466;11.066;2023-03-04T05:44:06;29.82;;;16.75;;
23346;SDS011;36852;45.466;11.066;2023-03-04T05:46:35;28.57;;;16.07;;
23346;SDS011;36852;45.466;11.066;2023-03-04T05:49:04;31.27;;;15.18;;
23346;SDS011;36852;45.466;11.066;2023-03-04T05:51:33;28.92;;;15.53;;
23346;SDS011;36852;45.466;11.066;2023-03-04T05:54:01;29.57;;;15.78;;
23346;SDS011;36852;45.466;11.066;2023-03-04T05:56:29;26.12;;;15.25;;
23346;SDS011;36852;45.466;11.066;2023-03-04T05:58:59;28.70;;;15.53;;
23346;SDS011;36852;45.466;11.066;2023-03-04T06:01:27;25.80;;;15.93;;
23346;SDS011;36852;45.466;11.066;2023-03-04T06:03:56;26.25;;;15.83;;
23346;SDS011;36852;45.466;11.066;2023-03-04T06:06:25;28.20;;;15.03;;
23346;SDS011;36852;45.466;11.066;2023-03-04T06:08:53;30.75;;;15.50;;
23346;SDS011;36852;45.466;11.066;2023-03-04T06:11:21;27.48;;;16.05;;
23346;SDS011;36852;45.466;11.066;2023-03-04T06:13:50;30.50;;;17.32;;
23346;SDS011;36852;45.466;11.066;2023-03-04T06:16:18;30.72;;;17.17;;
23346;SDS011;36852;45.466;11.066;2023-03-04T06:18:47;30.35;;;16.80;;
23346;SDS011;36852;45.466;11.066;2023-03-04T06:21:14;29.35;;;16.37;;
23346;SDS011;36852;45.466;11.066;2023-03-04T06:23:42;29.72;;;16.23;;
23346;SDS011;36852;45.466;11.066;2023-03-04T06:26:12;29.77;;;15.70;;
23346;SDS011;36852;45.466;11.066;2023-03-04T06:28:45;32.88;;;16.55;;
23346;SDS011;36852;45.466;11.066;2023-03-04T06:31:13;26.60;;;17.37;;
23346;SDS011;36852;45.466;11.066;2023-03-04T06:33:41;31.15;;;16.50;;
23346;SDS011;36852;45.466;11.066;2023-03-04T06:36:10;27.40;;;16.23;;
23346;SDS011;36852;45.466;11.066;2023-03-04T06:38:39;31.70;;;18.02;;
23346;SDS011;36852;45.466;11.066;2023-03-04T06:41:07;28.55;;;15.98;;
23346;SDS011;36852;45.466;11.066;2023-03-04T06:43:37;27.30;;;16.73;;
23346;SDS011;36852;45.466;11.066;2023-03-04T06:46:07;29.42;;;17.07;;
23346;SDS011;36852;45.466;11.066;2023-03-04T06:48:35;32.78;;;15.88;;
23346;SDS011;36852;45.466;11.066;2023-03-04T06:51:07;40.38;;;17.10;;
23346;SDS011;36852;45.466;11.066;2023-03-04T06:53:36;29.72;;;17.55;;
23346;SDS011;36852;45.466;11.066;2023-03-04T06:56:05;27.32;;;15.38;;
23346;SDS011;36852;45.466;11.066;2023-03-04T06:58:34;30.77;;;16.30;;
23346;SDS011;36852;45.466;11.066;2023-03-04T07:01:13;31.68;;;17.45;;
23346;SDS011;36852;45.466;11.066;2023-03-04T07:03:49;27.42;;;15.55;;
23346;SDS011;36852;45.466;11.066;2023-03-04T07:06:19;33.45;;;17.10;;
23346;SDS011;36852;45.466;11.066;2023-03-04T07:08:50;27.55;;;16.80;;
23346;SDS011;36852;45.466;11.066;2023-03-04T07:11:19;27.48;;;16.95;;
23346;SDS011;36852;45.466;11.066;2023-03-04T07:13:48;29.20;;;15.90;;
23346;SDS011;36852;45.466;11.066;2023-03-04T07:16:18;27.25;;;16.42;;
23346;SDS011;36852;45.466;11.066;2023-03-04T07:18:48;23.52;;;14.35;;
23346;SDS011;36852;45.466;11.066;2023-03-04T07:21:17;23.73;;;13.35;;
23346;SDS011;36852;45.466;11.066;2023-03-04T07:23:46;25.35;;;13.00;;
23346;SDS011;36852;45.466;11.066;2023-03-04T07:26:14;24.95;;;14.20;;
23346;SDS011;36852;45.466;11.066;2023-03-04T07:31:31;21.97;;;12.63;;
23346;SDS011;36852;45.466;11.066;2023-03-04T07:34:02;21.75;;;12.45;;
23346;SDS011;36852;45.466;11.066;2023-03-04T07:36:32;23.40;;;12.53;;
23346;SDS011;36852;45.466;11.066;2023-03-04T07:39:05;25.15;;;13.83;;
23346;SDS011;36852;45.466;11.066;2023-03-04T07:41:35;18.80;;;12.30;;
23346;SDS011;36852;45.466;11.066;2023-03-04T07:44:04;19.67;;;12.07;;
23346;SDS011;36852;45.466;11.066;2023-03-04T07:46:33;22.70;;;12.73;;
23346;SDS011;36852;45.466;11.066;2023-03-04T07:49:01;23.07;;;12.58;;
23346;SDS011;36852;45.466;11.066;2023-03-04T07:51:30;23.47;;;12.88;;
23346;SDS011;36852;45.466;11.066;2023-03-04T07:53:58;19.82;;;11.28;;
23346;SDS011;36852;45.466;11.066;2023-03-04T07:56:29;18.62;;;11.97;;
23346;SDS011;36852;45.466;11.066;2023-03-04T07:58:58;19.35;;;11.80;;
23346;SDS011;36852;45.466;11.066;2023-03-04T08:01:33;24.45;;;12.35;;
23346;SDS011;36852;45.466;11.066;2023-03-04T08:04:04;21.55;;;12.70;;
23346;SDS011;36852;45.466;11.066;2023-03-04T08:06:33;20.75;;;12.95;;
23346;SDS011;36852;45.466;11.066;2023-03-04T08:09:06;25.00;;;14.05;;
23346;SDS011;36852;45.466;11.066;2023-03-04T08:11:34;29.27;;;12.85;;
23346;SDS011;36852;45.466;11.066;2023-03-04T08:14:04;21.10;;;12.40;;
23346;SDS011;36852;45.466;11.066;2023-03-04T08:16:33;20.20;;;12.15;;
23346;SDS011;36852;45.466;11.066;2023-03-04T08:19:01;24.82;;;13.45;;
23346;SDS011;36852;45.466;11.066;2023-03-04T08:21:31;20.80;;;12.18;;
23346;SDS011;36852;45.466;11.066;2023-03-04T08:24:00;17.67;;;11.78;;
23346;SDS011;36852;45.466;11.066;2023-03-04T08:26:31;20.43;;;12.68;;
23346;SDS011;36852;45.466;11.066;2023-03-04T08:29:06;20.35;;;12.15;;
23346;SDS011;36852;45.466;11.066;2023-03-04T08:31:37;24.07;;;12.95;;
23346;SDS011;36852;45.466;11.066;2023-03-04T08:34:06;21.90;;;12.82;;
23346;SDS011;36852;45.466;11.066;2023-03-04T08:36:39;19.62;;;12.07;;
23346;SDS011;36852;45.466;11.066;2023-03-04T08:39:11;21.70;;;12.23;;
23346;SDS011;36852;45.466;11.066;2023-03-04T08:41:40;20.92;;;11.38;;
23346;SDS011;36852;45.466;11.066;2023-03-04T08:44:10;20.30;;;12.90;;
23346;SDS011;36852;45.466;11.066;2023-03-04T08:46:39;25.57;;;13.72;;
23346;SDS011;36852;45.466;11.066;2023-03-04T08:49:09;20.92;;;13.60;;
23346;SDS011;36852;45.466;11.066;2023-03-04T08:51:39;29.87;;;14.98;;
23346;SDS011;36852;45.466;11.066;2023-03-04T08:54:07;25.17;;;15.25;;
23346;SDS011;36852;45.466;11.066;2023-03-04T08:56:36;29.07;;;16.60;;
23346;SDS011;36852;45.466;11.066;2023-03-04T08:59:04;28.80;;;15.65;;
23346;SDS011;36852;45.466;11.066;2023-03-04T09:01:33;30.08;;;17.95;;
23346;SDS011;36852;45.466;11.066;2023-03-04T09:04:08;32.30;;;17.10;;
23346;SDS011;36852;45.466;11.066;2023-03-04T09:06:37;31.40;;;17.73;;
23346;SDS011;36852;45.466;11.066;2023-03-04T09:09:05;30.52;;;17.10;;
23346;SDS011;36852;45.466;11.066;2023-03-04T09:11:33;29.72;;;17.82;;
23346;SDS011;36852;45.466;11.066;2023-03-04T09:14:08;30.80;;;16.52;;
23346;SDS011;36852;45.466;11.066;2023-03-04T09:16:36;27.32;;;16.85;;
23346;SDS011;36852;45.466;11.066;2023-03-04T09:19:05;29.45;;;17.12;;
23346;SDS011;36852;45.466;11.066;2023-03-04T09:21:33;28.47;;;16.85;;
23346;SDS011;36852;45.466;11.066;2023-03-04T09:24:01;26.82;;;16.12;;
23346;SDS011;36852;45.466;11.066;2023-03-04T09:26:29;25.62;;;16.82;;
23346;SDS011;36852;45.466;11.066;2023-03-04T09:28:58;30.92;;;17.98;;
23346;SDS011;36852;45.466;11.066;2023-03-04T09:31:30;32.20;;;16.95;;
23346;SDS011;36852;45.466;11.066;2023-03-04T09:36:41;26.17;;;16.00;;
23346;SDS011;36852;45.466;11.066;2023-03-04T09:41:50;26.35;;;14.98;;
23346;SDS011;36852;45.466;11.066;2023-03-04T09:44:23;33.15;;;15.88;;
23346;SDS011;36852;45.466;11.066;2023-03-04T09:47:04;24.43;;;14.53;;
23346;SDS011;36852;45.466;11.066;2023-03-04T09:52:36;27.35;;;16.75;;
23346;SDS011;36852;45.466;11.066;2023-03-04T10:01:00;30.02;;;15.28;;
23346;SDS011;36852;45.466;11.066;2023-03-04T10:04:17;23.70;;;14.87;;
23346;SDS011;36852;45.466;11.066;2023-03-04T10:06:28;23.10;;;14.65;;
23346;SDS011;36852;45.466;11.066;2023-03-04T10:08:59;27.55;;;15.55;;
23346;SDS011;36852;45.466;11.066;2023-03-04T10:11:47;26.68;;;14.28;;
23346;SDS011;36852;45.466;11.066;2023-03-04T10:22:31;29.20;;;15.40;;
23346;SDS011;36852;45.466;11.066;2023-03-04T10:25:01;27.20;;;16.82;;
23346;SDS011;36852;45.466;11.066;2023-03-04T10:27:31;34.95;;;16.35;;
23346;SDS011;36852;45.466;11.066;2023-03-04T10:29:59;29.10;;;16.00;;
23346;SDS011;36852;45.466;11.066;2023-03-04T10:32:27;28.65;;;16.30;;
23346;SDS011;36852;45.466;11.066;2023-03-04T10:34:55;29.27;;;17.37;;
23346;SDS011;36852;45.466;11.066;2023-03-04T10:37:41;28.47;;;17.00;;
23346;SDS011;36852;45.466;11.066;2023-03-04T10:39:58;27.13;;;16.12;;
23346;SDS011;36852;45.466;11.066;2023-03-04T10:42:30;29.37;;;18.77;;
23346;SDS011;36852;45.466;11.066;2023-03-04T10:45:05;29.42;;;16.70;;
23346;SDS011;36852;45.466;11.066;2023-03-04T10:47:36;27.32;;;16.35;;
23346;SDS011;36852;45.466;11.066;2023-03-04T10:50:04;29.35;;;17.67;;
23346;SDS011;36852;45.466;11.066;2023-03-04T10:52:46;30.77;;;18.25;;
23346;SDS011;36852;45.466;11.066;2023-03-04T10:55:26;27.93;;;18.20;;
23346;SDS011;36852;45.466;11.066;2023-03-04T10:58:01;30.00;;;18.37;;
23346;SDS011;36852;45.466;11.066;2023-03-04T11:00:31;29.90;;;18.42;;
23346;SDS011;36852;45.466;11.066;2023-03-04T11:05:48;27.87;;;16.62;;
23346;SDS011;36852;45.466;11.066;2023-03-04T11:08:17;29.02;;;18.50;;
23346;SDS011;36852;45.466;11.066;2023-03-04T11:10:49;30.25;;;19.15;;
23346;SDS011;36852;45.466;11.066;2023-03-04T11:13:20;28.00;;;16.85;;
23346;SDS011;36852;45.466;11.066;2023-03-04T11:15:55;28.02;;;18.65;;
23346;SDS011;36852;45.466;11.066;2023-03-04T11:21:27;31.45;;;18.60;;
23346;SDS011;36852;45.466;11.066;2023-03-04T11:23:58;33.05;;;18.73;;
23346;SDS011;36852;45.466;11.066;2023-03-04T11:26:37;31.75;;;19.00;;
23346;SDS011;36852;45.466;11.066;2023-03-04T11:31:52;33.25;;;20.40;;
23346;SDS011;36852;45.466;11.066;2023-03-04T11:39:45;29.50;;;19.70;;
23346;SDS011;36852;45.466;11.066;2023-03-04T11:56:55;37.55;;;22.02;;
23346;SDS011;36852;45.466;11.066;2023-03-04T12:02:28;36.20;;;22.98;;
23346;SDS011;36852;45.466;11.066;2023-03-04T12:08:11;34.78;;;22.32;;
23346;SDS011;36852;45.466;11.066;2023-03-04T12:17:01;31.95;;;19.85;;
23346;SDS011;36852;45.466;11.066;2023-03-04T12:19:36;33.78;;;21.37;;
23346;SDS011;36852;45.466;11.066;2023-03-04T12:22:08;33.15;;;21.12;;
23346;SDS011;36852;45.466;11.066;2023-03-04T12:25:03;27.87;;;19.00;;
23346;SDS011;36852;45.466;11.066;2023-03-04T12:27:47;32.28;;;19.67;;
23346;SDS011;36852;45.466;11.066;2023-03-04T12:42:06;33.55;;;18.30;;
23346;SDS011;36852;45.466;11.066;2023-03-04T12:44:46;27.17;;;17.98;;
23346;SDS011;36852;45.466;11.066;2023-03-04T12:52:42;30.23;;;19.20;;
23346;SDS011;36852;45.466;11.066;2023-03-04T12:55:21;28.83;;;19.15;;
23346;SDS011;36852;45.466;11.066;2023-03-04T12:57:53;31.57;;;19.92;;
23346;SDS011;36852;45.466;11.066;2023-03-04T13:03:11;31.00;;;18.92;;
23346;SDS011;36852;45.466;11.066;2023-03-04T13:08:47;26.85;;;17.35;;
23346;SDS011;36852;45.466;11.066;2023-03-04T13:16:39;30.08;;;20.88;;
23346;SDS011;36852;45.466;11.066;2023-03-04T13:19:40;31.95;;;19.15;;
23346;SDS011;36852;45.466;11.066;2023-03-04T13:22:00;28.17;;;19.12;;
23346;SDS011;36852;45.466;11.066;2023-03-04T13:24:46;30.52;;;19.15;;
23346;SDS011;36852;45.466;11.066;2023-03-04T13:30:08;32.10;;;20.97;;
23346;SDS011;36852;45.466;11.066;2023-03-04T13:32:37;34.08;;;19.48;;
23346;SDS011;36852;45.466;11.066;2023-03-04T13:41:12;30.92;;;19.65;;
23346;SDS011;36852;45.466;11.066;2023-03-04T13:43:56;30.00;;;19.48;;
23346;SDS011;36852;45.466;11.066;2023-03-04T13:51:31;33.67;;;21.20;;
23346;SDS011;36852;45.466;11.066;2023-03-04T13:56:43;34.15;;;21.00;;
23346;SDS011;36852;45.466;11.066;2023-03-04T13:59:19;31.52;;;20.10;;
23346;SDS011;36852;45.466;11.066;2023-03-04T14:01:56;34.35;;;21.23;;
23346;SDS011;36852;45.466;11.066;2023-03-04T14:07:00;34.48;;;22.30;;
23346;SDS011;36852;45.466;11.066;2023-03-04T14:09:32;34.45;;;22.42;;
23346;SDS011;36852;45.466;11.066;2023-03-04T14:12:02;32.93;;;19.62;;
23346;SDS011;36852;45.466;11.066;2023-03-04T14:17:23;36.68;;;21.85;;
23346;SDS011;36852;45.466;11.066;2023-03-04T14:19:55;31.57;;;21.75;;
23346;SDS011;36852;45.466;11.066;2023-03-04T14:22:31;32.13;;;21.15;;
23346;SDS011;36852;45.466;11.066;2023-03-04T14:25:05;29.95;;;19.82;;
23346;SDS011;36852;45.466;11.066;2023-03-04T14:27:36;28.07;;;19.67;;
23346;SDS011;36852;45.466;11.066;2023-03-04T14:30:17;32.55;;;20.95;;
23346;SDS011;36852;45.466;11.066;2023-03-04T14:32:53;27.93;;;19.05;;
23346;SDS011;36852;45.466;11.066;2023-03-04T14:35:25;30.35;;;20.85;;
23346;SDS011;36852;45.466;11.066;2023-03-04T14:40:31;29.57;;;20.10;;
23346;SDS011;36852;45.466;11.066;2023-03-04T14:43:12;28.30;;;19.07;;
23346;SDS011;36852;45.466;11.066;2023-03-04T14:45:43;32.95;;;20.23;;
23346;SDS011;36852;45.466;11.066;2023-03-04T14:48:17;29.70;;;20.72;;
23346;SDS011;36852;45.466;11.066;2023-03-04T14:50:54;29.60;;;18.67;;
23346;SDS011;36852;45.466;11.066;2023-03-04T14:53:23;30.27;;;20.12;;
23346;SDS011;36852;45.466;11.066;2023-03-04T14:55:54;27.52;;;19.87;;
23346;SDS011;36852;45.466;11.066;2023-03-04T14:58:26;31.15;;;19.70;;
23346;SDS011;36852;45.466;11.066;2023-03-04T15:03:35;26.70;;;18.90;;
23346;SDS011;36852;45.466;11.066;2023-03-04T15:08:45;28.50;;;20.40;;
23346;SDS011;36852;45.466;11.066;2023-03-04T15:11:22;28.35;;;20.10;;
23346;SDS011;36852;45.466;11.066;2023-03-04T15:13:54;23.83;;;19.45;;
23346;SDS011;36852;45.466;11.066;2023-03-04T15:16:25;27.50;;;18.77;;
23346;SDS011;36852;45.466;11.066;2023-03-04T15:19:18;28.50;;;18.50;;
23346;SDS011;36852;45.466;11.066;2023-03-04T15:21:49;27.93;;;19.05;;
23346;SDS011;36852;45.466;11.066;2023-03-04T15:24:17;25.72;;;18.75;;
23346;SDS011;36852;45.466;11.066;2023-03-04T15:26:45;23.80;;;18.55;;
23346;SDS011;36852;45.466;11.066;2023-03-04T15:29:18;24.27;;;18.37;;
23346;SDS011;36852;45.466;11.066;2023-03-04T15:31:47;28.15;;;19.05;;
23346;SDS011;36852;45.466;11.066;2023-03-04T15:34:16;26.60;;;19.40;;
23346;SDS011;36852;45.466;11.066;2023-03-04T15:36:47;26.02;;;20.52;;
23346;SDS011;36852;45.466;11.066;2023-03-04T15:39:17;27.13;;;19.77;;
23346;SDS011;36852;45.466;11.066;2023-03-04T15:41:47;27.85;;;18.82;;
23346;SDS011;36852;45.466;11.066;2023-03-04T15:44:17;26.45;;;18.67;;
23346;SDS011;36852;45.466;11.066;2023-03-04T15:46:45;26.93;;;17.80;;
23346;SDS011;36852;45.466;11.066;2023-03-04T15:49:16;28.62;;;19.52;;
23346;SDS011;36852;45.466;11.066;2023-03-04T15:51:45;26.35;;;19.42;;
23346;SDS011;36852;45.466;11.066;2023-03-04T15:54:13;24.87;;;17.85;;
23346;SDS011;36852;45.466;11.066;2023-03-04T15:56:41;26.15;;;19.17;;
23346;SDS011;36852;45.466;11.066;2023-03-04T15:59:11;24.75;;;19.30;;
23346;SDS011;36852;45.466;11.066;2023-03-04T16:01:41;25.88;;;19.73;;
23346;SDS011;36852;45.466;11.066;2023-03-04T16:04:15;24.57;;;18.85;;
23346;SDS011;36852;45.466;11.066;2023-03-04T16:06:44;26.23;;;18.40;;
23346;SDS011;36852;45.466;11.066;2023-03-04T16:09:14;27.75;;;18.40;;
23346;SDS011;36852;45.466;11.066;2023-03-04T16:11:43;27.27;;;19.73;;
23346;SDS011;36852;45.466;11.066;2023-03-04T16:14:13;26.10;;;18.12;;
23346;SDS011;36852;45.466;11.066;2023-03-04T16:16:42;27.32;;;18.75;;
23346;SDS011;36852;45.466;11.066;2023-03-04T16:19:12;30.20;;;20.43;;
23346;SDS011;36852;45.466;11.066;2023-03-04T16:21:40;29.20;;;20.12;;
23346;SDS011;36852;45.466;11.066;2023-03-04T16:24:19;32.55;;;19.82;;
23346;SDS011;36852;45.466;11.066;2023-03-04T16:26:46;28.75;;;19.85;;
23346;SDS011;36852;45.466;11.066;2023-03-04T16:29:15;31.65;;;20.15;;
23346;SDS011;36852;45.466;11.066;2023-03-04T16:31:43;28.98;;;20.80;;
23346;SDS011;36852;45.466;11.066;2023-03-04T16:34:11;32.48;;;20.57;;
23346;SDS011;36852;45.466;11.066;2023-03-04T16:36:40;28.45;;;20.12;;
23346;SDS011;36852;45.466;11.066;2023-03-04T16:39:12;30.82;;;20.23;;
23346;SDS011;36852;45.466;11.066;2023-03-04T16:41:44;28.07;;;19.98;;
23346;SDS011;36852;45.466;11.066;2023-03-04T16:44:14;30.57;;;20.50;;
23346;SDS011;36852;45.466;11.066;2023-03-04T16:46:42;31.05;;;18.82;;
23346;SDS011;36852;45.466;11.066;2023-03-04T16:49:10;33.70;;;21.40;;
23346;SDS011;36852;45.466;11.066;2023-03-04T16:51:41;33.42;;;21.73;;